createdAt,value
2024-04-04T00:01:22.872Z,0.61
2024-04-04T00:03:22.856Z,0.78
2024-04-04T00:05:22.864Z,0.72
2024-04-04T00:07:22.862Z,0.58
2024-04-04T00:09:22.900Z,0.80
2024-04-04T00:11:22.908Z,0.67
2024-04-04T00:13:22.878Z,0.67
2024-04-04T00:15:22.899Z,0.62
2024-04-04T00:17:22.915Z,0.66
2024-04-04T00:19:22.918Z,0.58
2024-04-04T00:22:22.940Z,0.73
2024-04-04T00:24:22.947Z,0.71
2024-04-04T00:26:22.904Z,0.66
2024-04-04T00:28:22.921Z,0.55
2024-04-04T00:30:22.905Z,0.79
2024-04-04T00:33:22.922Z,0.89
2024-04-04T00:35:22.945Z,0.60
2024-04-04T00:37:22.957Z,0.63
2024-04-04T00:39:22.970Z,0.62
2024-04-04T00:41:22.950Z,0.67
2024-04-04T00:43:22.960Z,0.67
2024-04-04T00:45:22.970Z,0.61
2024-04-04T00:47:23.008Z,0.41
2024-04-04T00:49:22.962Z,0.58
2024-04-04T00:51:22.968Z,0.89
2024-04-04T00:53:23.017Z,0.80
2024-04-04T00:55:23.009Z,0.82
2024-04-04T00:57:22.988Z,0.84
2024-04-04T01:00:23.012Z,0.64
2024-04-04T01:03:23.046Z,0.70
2024-04-04T01:06:23.048Z,0.65
2024-04-04T01:08:23.051Z,0.55
2024-04-04T01:10:23.023Z,0.63
2024-04-04T01:12:23.031Z,0.44
2024-04-04T01:14:23.035Z,0.39
2024-04-04T01:16:23.079Z,0.60
2024-04-04T01:18:23.084Z,0.72
2024-04-04T01:20:23.051Z,0.56
2024-04-04T01:23:23.047Z,0.72
2024-04-04T01:25:23.058Z,0.52
2024-04-04T01:27:23.065Z,0.62
2024-04-04T01:29:23.104Z,0.58
2024-04-04T01:31:23.113Z,0.76
2024-04-04T01:33:23.061Z,0.58
2024-04-04T01:35:23.103Z,0.51
2024-04-04T01:38:23.090Z,0.44
2024-04-04T01:40:23.087Z,0.45
2024-04-04T01:42:23.140Z,0.66
2024-04-04T01:44:23.137Z,0.56
2024-04-04T01:46:23.092Z,0.61
2024-04-04T01:49:23.131Z,0.62
2024-04-04T01:51:23.119Z,0.77
2024-04-04T01:53:23.122Z,0.40
2024-04-04T01:55:23.170Z,0.74
2024-04-04T01:57:23.178Z,0.46
2024-04-04T01:59:23.137Z,0.48
2024-04-04T02:01:23.173Z,0.48
2024-04-04T02:03:23.173Z,0.31
2024-04-04T02:05:23.195Z,0.47
2024-04-04T02:07:23.162Z,0.56
2024-04-04T02:09:23.170Z,0.51
2024-04-04T02:11:23.160Z,0.49
2024-04-04T02:13:23.212Z,0.66
2024-04-04T02:15:23.202Z,0.30
2024-04-04T02:17:23.231Z,0.41
2024-04-04T02:19:23.200Z,0.49
2024-04-04T02:21:23.226Z,0.45
2024-04-04T02:23:23.234Z,0.48
2024-04-04T02:26:23.242Z,0.47
2024-04-04T02:28:23.203Z,0.62
2024-04-04T02:30:23.210Z,0.30
2024-04-04T02:32:23.224Z,0.43
2024-04-04T02:34:23.261Z,0.59
2024-04-04T02:36:23.262Z,0.57
2024-04-04T02:38:23.254Z,0.51
2024-04-04T02:40:23.235Z,0.19
2024-04-04T02:42:23.275Z,0.53
2024-04-04T02:44:23.296Z,0.49
2024-04-04T02:47:23.347Z,0.45
2024-04-04T02:49:23.300Z,0.50
2024-04-04T02:51:23.266Z,0.51
2024-04-04T02:53:23.297Z,0.34
2024-04-04T02:55:23.337Z,0.52
2024-04-04T02:57:23.321Z,0.58
2024-04-04T02:59:23.282Z,0.41
2024-04-04T03:01:23.280Z,0.53
2024-04-04T03:03:23.284Z,0.56
2024-04-04T03:05:23.354Z,0.52
2024-04-04T03:07:23.354Z,0.56
2024-04-04T03:09:23.291Z,0.62
2024-04-04T03:11:23.299Z,0.65
2024-04-04T03:14:23.344Z,0.54
2024-04-04T03:16:23.320Z,0.68
2024-04-04T03:18:23.356Z,0.78
2024-04-04T03:20:23.396Z,0.69
2024-04-04T03:22:23.352Z,0.62
2024-04-04T03:24:23.332Z,0.80
2024-04-04T03:26:23.380Z,0.42
2024-04-04T03:29:23.361Z,0.52
2024-04-04T03:31:23.401Z,0.67
2024-04-04T03:33:23.407Z,0.57
2024-04-04T03:36:23.433Z,0.48
2024-04-04T03:38:23.425Z,0.55
2024-04-04T03:40:23.385Z,0.60
2024-04-04T03:42:23.400Z,0.46
2024-04-04T03:44:23.403Z,0.44
2024-04-04T03:46:23.435Z,0.59
2024-04-04T03:49:23.415Z,0.49
2024-04-04T03:51:23.471Z,0.45
2024-04-04T03:53:23.453Z,0.60
2024-04-04T03:55:23.427Z,0.50
2024-04-04T03:57:23.432Z,0.55
2024-04-04T03:59:23.472Z,0.81
2024-04-04T04:01:23.526Z,0.48
2024-04-04T04:03:23.445Z,0.52
2024-04-04T04:05:23.451Z,0.48
2024-04-04T04:07:23.484Z,0.45
2024-04-04T04:09:23.519Z,0.46
2024-04-04T04:11:23.491Z,0.69
2024-04-04T04:14:23.518Z,0.70
2024-04-04T04:16:23.486Z,0.37
2024-04-04T04:18:23.482Z,0.55
2024-04-04T04:21:23.492Z,0.91
2024-04-04T04:24:23.515Z,1.48
2024-04-04T04:27:23.530Z,0.69
2024-04-04T04:29:23.514Z,0.79
2024-04-04T04:31:23.506Z,1.05
2024-04-04T04:33:23.522Z,1.28
2024-04-04T04:35:23.558Z,0.59
2024-04-04T04:37:23.639Z,0.46
2024-04-04T04:39:23.542Z,0.92
2024-04-04T04:41:23.547Z,0.49
2024-04-04T04:43:23.636Z,1.06
2024-04-04T04:45:23.616Z,0.51
2024-04-04T04:47:23.597Z,0.85
2024-04-04T04:49:23.564Z,0.81
2024-04-04T04:51:23.604Z,0.94
2024-04-04T04:53:23.610Z,0.69
2024-04-04T04:55:23.660Z,0.66
2024-04-04T04:57:23.603Z,0.61
2024-04-04T04:59:23.587Z,0.98
2024-04-04T05:01:23.679Z,0.77
2024-04-04T05:03:23.642Z,0.60
2024-04-04T05:05:23.661Z,1.05
2024-04-04T05:07:23.609Z,0.80
2024-04-04T05:09:23.627Z,0.45
2024-04-04T05:11:23.658Z,0.89
2024-04-04T05:13:23.672Z,1.15
2024-04-04T05:15:23.620Z,0.86
2024-04-04T05:17:23.632Z,1.03
2024-04-04T05:19:23.753Z,0.93
2024-04-04T05:22:23.652Z,0.77
2024-04-04T05:25:23.742Z,0.54
2024-04-04T05:27:23.724Z,0.75
2024-04-04T05:29:23.696Z,0.94
2024-04-04T05:32:23.748Z,1.01
2024-04-04T05:34:23.786Z,0.89
2024-04-04T05:36:23.763Z,0.86
2024-04-04T05:38:23.795Z,0.97
2024-04-04T05:40:23.779Z,0.96
2024-04-04T05:44:23.821Z,0.70
2024-04-04T05:46:23.792Z,1.03
2024-04-04T05:48:23.707Z,1.37
2024-04-04T05:50:23.705Z,0.95
2024-04-04T05:53:23.723Z,1.09
2024-04-04T05:55:23.770Z,1.49
2024-04-04T05:57:23.770Z,2.43
2024-04-04T05:59:23.734Z,1.34
2024-04-04T06:01:25.376Z,1.34
2024-04-04T06:03:23.749Z,0.89
2024-04-04T06:05:23.783Z,1.41
2024-04-04T06:07:23.798Z,1.65
2024-04-04T06:09:23.777Z,1.14
2024-04-04T06:11:23.751Z,1.19
2024-04-04T06:13:23.823Z,1.36
2024-04-04T06:15:23.796Z,0.95
2024-04-04T06:17:23.785Z,1.07
2024-04-04T06:19:23.791Z,0.75
2024-04-04T06:21:23.822Z,0.95
2024-04-04T06:24:23.776Z,1.32
2024-04-04T06:26:23.850Z,1.55
2024-04-04T06:28:23.853Z,1.70
2024-04-04T06:30:23.828Z,1.03
2024-04-04T06:32:23.814Z,1.98
2024-04-04T06:34:23.867Z,1.04
2024-04-04T06:36:26.344Z,1.28
2024-04-04T06:38:23.851Z,1.05
2024-04-04T06:40:23.835Z,1.74
2024-04-04T06:42:24.639Z,1.50
2024-04-04T06:44:23.887Z,1.52
2024-04-04T06:46:23.878Z,2.24
2024-04-04T06:48:23.860Z,1.23
2024-04-04T06:50:23.867Z,1.61
2024-04-04T06:52:23.906Z,1.26
2024-04-04T06:54:23.899Z,1.05
2024-04-04T06:56:23.867Z,1.24
2024-04-04T06:58:23.882Z,1.02
2024-04-04T07:00:23.918Z,1.32
2024-04-04T07:02:23.917Z,1.11
2024-04-04T07:04:23.904Z,0.74
2024-04-04T07:06:23.895Z,1.20
2024-04-04T07:08:23.904Z,0.80
2024-04-04T07:10:23.959Z,1.60
2024-04-04T07:12:23.968Z,1.24
2024-04-04T07:14:23.918Z,1.12
2024-04-04T07:16:23.922Z,1.05
2024-04-04T07:18:23.952Z,0.98
2024-04-04T07:20:23.972Z,1.02
2024-04-04T07:22:23.964Z,1.03
2024-04-04T07:24:23.965Z,0.88
2024-04-04T07:26:23.940Z,1.08
2024-04-04T07:28:23.985Z,0.68
2024-04-04T07:30:23.995Z,0.70
2024-04-04T07:32:23.960Z,0.69
2024-04-04T07:34:23.979Z,0.65
2024-04-04T07:36:24.017Z,0.90
2024-04-04T07:38:24.020Z,1.07
2024-04-04T07:40:23.979Z,1.01
2024-04-04T07:42:23.995Z,0.95
2024-04-04T07:44:23.978Z,0.92
2024-04-04T07:46:24.030Z,0.78
2024-04-04T07:48:24.034Z,0.83
2024-04-04T07:50:24.022Z,1.04
2024-04-04T07:52:24.023Z,0.85
2024-04-04T07:54:24.058Z,1.03
2024-04-04T07:56:24.068Z,0.80
2024-04-04T07:58:24.034Z,0.78
2024-04-04T08:00:24.026Z,0.75
2024-04-04T08:02:24.059Z,0.80
2024-04-04T08:04:24.085Z,1.37
2024-04-04T08:06:24.066Z,1.26
2024-04-04T08:08:24.075Z,0.72
2024-04-04T08:10:24.095Z,1.01
2024-04-04T08:12:24.113Z,1.22
2024-04-04T08:14:24.068Z,0.62
2024-04-04T08:16:24.098Z,1.22
2024-04-04T08:18:24.852Z,1.01
2024-04-04T08:20:24.140Z,0.86
2024-04-04T08:22:24.137Z,1.16
2024-04-04T08:24:24.088Z,1.18
2024-04-04T08:26:24.117Z,1.60
2024-04-04T08:28:24.131Z,1.29
2024-04-04T08:30:24.150Z,1.04
2024-04-04T08:32:24.167Z,1.23
2024-04-04T08:34:24.132Z,1.53
2024-04-04T08:36:24.135Z,1.60
2024-04-04T08:38:24.135Z,1.13
2024-04-04T08:40:24.211Z,1.41
2024-04-04T08:42:24.182Z,1.35
2024-04-04T08:44:24.135Z,2.05
2024-04-04T08:46:24.152Z,1.16
2024-04-04T08:48:24.199Z,2.05
2024-04-04T08:50:32.924Z,3.34
2024-04-04T08:51:24.180Z,3.85
2024-04-04T08:53:24.224Z,2.40
2024-04-04T08:56:24.219Z,1.64
2024-04-04T08:59:24.215Z,1.26
2024-04-04T09:01:30.403Z,2.06
2024-04-04T09:03:24.231Z,1.56
2024-04-04T09:05:24.195Z,1.60
2024-04-04T09:07:24.213Z,1.86
2024-04-04T09:09:24.239Z,2.51
2024-04-04T09:11:24.263Z,1.71
2024-04-04T09:13:24.229Z,1.55
2024-04-04T09:15:24.239Z,1.82
2024-04-04T09:17:24.253Z,1.72
2024-04-04T09:19:24.287Z,1.56
2024-04-04T09:21:24.297Z,1.56
2024-04-04T09:23:24.258Z,1.26
2024-04-04T09:25:24.259Z,1.02
2024-04-04T09:27:24.345Z,1.19
2024-04-04T09:29:24.290Z,1.09
2024-04-04T09:31:24.286Z,0.84
2024-04-04T09:33:24.275Z,0.70
2024-04-04T09:35:24.310Z,1.06
2024-04-04T09:37:24.308Z,1.03
2024-04-04T09:39:24.349Z,0.97
2024-04-04T09:41:24.281Z,0.98
2024-04-04T09:43:24.306Z,0.97
2024-04-04T09:45:24.331Z,0.95
2024-04-04T09:47:24.340Z,0.76
2024-04-04T09:49:24.322Z,0.79
2024-04-04T09:51:24.316Z,0.97
2024-04-04T09:54:24.346Z,0.72
2024-04-04T09:56:24.336Z,0.72
2024-04-04T09:58:24.363Z,0.79
2024-04-04T10:00:24.378Z,1.46
2024-04-04T10:02:24.357Z,0.76
2024-04-04T10:03:24.405Z,0.90
2024-04-04T10:05:24.359Z,0.91
2024-04-04T10:06:24.414Z,0.89
2024-04-04T10:08:24.388Z,1.07
2024-04-04T10:10:24.371Z,1.22
2024-04-04T10:12:24.366Z,1.50
2024-04-04T10:14:24.407Z,0.94
2024-04-04T10:16:24.420Z,0.66
2024-04-04T10:18:24.413Z,0.98
2024-04-04T10:20:24.411Z,0.82
2024-04-04T10:22:24.411Z,0.83
2024-04-04T10:24:24.456Z,0.72
2024-04-04T10:26:24.450Z,0.78
2024-04-04T10:28:24.413Z,0.83
2024-04-04T10:30:24.446Z,0.69
2024-04-04T10:32:24.459Z,0.90
2024-04-04T10:34:24.459Z,0.76
2024-04-04T10:36:24.450Z,0.65
2024-04-04T10:38:24.439Z,0.88
2024-04-04T10:40:24.452Z,0.89
2024-04-04T10:42:24.503Z,0.91
2024-04-04T10:44:24.500Z,1.06
2024-04-04T10:46:24.459Z,0.83
2024-04-04T10:48:24.471Z,0.68
2024-04-04T10:50:24.498Z,0.68
2024-04-04T10:52:24.511Z,0.86
2024-04-04T10:54:24.503Z,0.75
2024-04-04T10:56:24.498Z,0.88
2024-04-04T10:58:24.485Z,0.55
2024-04-04T11:00:24.562Z,0.93
2024-04-04T11:02:24.562Z,0.69
2024-04-04T11:04:24.535Z,0.83
2024-04-04T11:06:24.521Z,0.87
2024-04-04T11:08:24.550Z,0.79
2024-04-04T11:10:24.551Z,0.58
2024-04-04T11:13:24.573Z,0.99
2024-04-04T11:15:24.579Z,0.83
2024-04-04T11:17:24.546Z,0.93
2024-04-04T11:19:24.551Z,0.92
2024-04-04T11:21:24.581Z,0.88
2024-04-04T11:23:24.596Z,0.75
2024-04-04T11:25:24.584Z,0.99
2024-04-04T11:27:24.572Z,0.96
2024-04-04T11:29:24.600Z,1.57
2024-04-04T11:31:24.621Z,1.21
2024-04-04T11:33:24.669Z,0.96
2024-04-04T11:35:24.586Z,1.09
2024-04-04T11:37:24.637Z,0.99
2024-04-04T11:39:24.640Z,0.92
2024-04-04T11:41:24.594Z,1.07
2024-04-04T11:43:24.601Z,0.97
2024-04-04T11:45:24.643Z,0.78
2024-04-04T11:48:24.615Z,0.86
2024-04-04T11:50:24.650Z,1.12
2024-04-04T11:52:24.669Z,0.83
2024-04-04T11:54:25.889Z,1.14
2024-04-04T11:56:24.635Z,0.82
2024-04-04T11:58:24.687Z,1.19
2024-04-04T12:00:25.592Z,0.86
2024-04-04T12:02:24.651Z,0.81
2024-04-04T12:04:24.659Z,1.21
2024-04-04T12:06:24.679Z,0.76
2024-04-04T12:08:29.696Z,0.81
2024-04-04T12:10:24.696Z,1.07
2024-04-04T12:12:24.690Z,1.00
2024-04-04T12:14:24.693Z,1.09
2024-04-04T12:16:24.724Z,1.15
2024-04-04T12:18:24.717Z,1.03
2024-04-04T12:19:24.713Z,0.96
2024-04-04T12:21:24.735Z,0.94
2024-04-04T12:23:24.717Z,1.04
2024-04-04T12:25:24.761Z,0.99
2024-04-04T12:27:24.722Z,0.90
2024-04-04T12:29:24.758Z,1.21
2024-04-04T12:31:24.767Z,1.00
2024-04-04T12:33:24.728Z,0.93
2024-04-04T12:35:24.728Z,0.91
2024-04-04T12:37:24.736Z,0.76
2024-04-04T12:39:24.790Z,0.88
2024-04-04T12:41:24.786Z,0.89
2024-04-04T12:43:24.786Z,0.92
2024-04-04T12:46:24.767Z,0.80
2024-04-04T12:48:24.775Z,1.09
2024-04-04T12:50:24.826Z,0.91
2024-04-04T12:52:24.814Z,0.77
2024-04-04T12:54:24.811Z,1.06
2024-04-04T12:56:24.800Z,1.53
2024-04-04T12:58:24.786Z,1.12
2024-04-04T13:00:24.857Z,1.28
2024-04-04T13:02:24.827Z,1.17
2024-04-04T13:04:24.816Z,1.83
2024-04-04T13:06:25.486Z,0.80
2024-04-04T13:08:24.853Z,1.21
2024-04-04T13:11:24.850Z,1.18
2024-04-04T13:13:24.866Z,0.75
2024-04-04T13:15:24.877Z,1.22
2024-04-04T13:17:24.865Z,0.83
2024-04-04T13:19:24.885Z,0.93
2024-04-04T13:21:24.899Z,1.06
2024-04-04T13:23:24.899Z,0.94
2024-04-04T13:25:24.901Z,1.01
2024-04-04T13:27:24.891Z,0.93
2024-04-04T13:29:24.912Z,1.14
2024-04-04T13:31:24.938Z,0.73
2024-04-04T13:33:24.896Z,0.98
2024-04-04T13:35:24.895Z,1.02
2024-04-04T13:37:24.892Z,1.79
2024-04-04T13:39:24.940Z,0.92
2024-04-04T13:41:25.028Z,0.80
2024-04-04T13:44:24.983Z,1.09
2024-04-04T13:47:24.922Z,1.33
2024-04-04T13:49:24.975Z,1.17
2024-04-04T13:51:24.967Z,0.98
2024-04-04T13:54:24.990Z,1.11
2024-04-04T13:56:24.945Z,1.47
2024-04-04T13:58:24.939Z,1.31
2024-04-04T14:00:24.977Z,1.21
2024-04-04T14:02:25.004Z,1.38
2024-04-04T14:04:24.996Z,0.95
2024-04-04T14:06:24.971Z,1.23
2024-04-04T14:08:24.987Z,1.18
2024-04-04T14:10:25.053Z,1.56
2024-04-04T14:12:25.054Z,1.30
2024-04-04T14:14:24.987Z,1.15
2024-04-04T14:17:25.108Z,1.27
2024-04-04T14:19:25.064Z,1.06
2024-04-04T14:21:25.015Z,1.33
2024-04-04T14:23:25.086Z,1.36
2024-04-04T14:25:25.092Z,0.99
2024-04-04T14:27:25.060Z,1.14
2024-04-04T14:29:25.031Z,1.24
2024-04-04T14:31:25.129Z,1.51
2024-04-04T14:33:25.075Z,1.37
2024-04-04T14:35:25.096Z,1.52
2024-04-04T14:37:25.107Z,1.30
2024-04-04T14:39:25.072Z,1.42
2024-04-04T14:41:25.134Z,1.10
2024-04-04T14:43:25.226Z,1.30
2024-04-04T14:45:25.082Z,1.49
2024-04-04T14:48:25.155Z,1.32
2024-04-04T14:50:25.087Z,1.10
2024-04-04T14:52:25.118Z,1.24
2024-04-04T14:54:25.146Z,1.28
2024-04-04T14:56:25.144Z,1.65
2024-04-04T14:58:25.118Z,1.75
2024-04-04T15:00:25.105Z,1.34
2024-04-04T15:02:25.201Z,1.24
2024-04-04T15:04:25.227Z,1.03
2024-04-04T15:06:25.209Z,1.15
2024-04-04T15:08:25.135Z,1.23
2024-04-04T15:10:25.266Z,1.54
2024-04-04T15:12:25.201Z,1.59
2024-04-04T15:14:25.184Z,1.37
2024-04-04T15:16:25.189Z,1.46
2024-04-04T15:18:25.164Z,1.59
2024-04-04T15:20:25.221Z,1.52
2024-04-04T15:22:25.201Z,1.32
2024-04-04T15:24:25.181Z,1.59
2024-04-04T15:26:25.192Z,1.33
2024-04-04T15:28:25.200Z,2.06
2024-04-04T15:30:25.224Z,1.24
2024-04-04T15:32:25.222Z,1.67
2024-04-04T15:34:25.221Z,1.38
2024-04-04T15:36:25.211Z,1.62
2024-04-04T15:39:25.217Z,1.12
2024-04-04T15:41:25.223Z,1.59
2024-04-04T15:43:25.280Z,1.56
2024-04-04T15:45:25.302Z,1.70
2024-04-04T15:47:25.240Z,1.95
2024-04-04T15:49:25.252Z,1.82
2024-04-04T15:51:25.230Z,1.77
2024-04-04T15:54:25.232Z,1.72
2024-04-04T15:56:25.285Z,1.11
2024-04-04T15:58:25.374Z,1.38
2024-04-04T16:00:25.257Z,1.64
2024-04-04T16:02:25.279Z,1.87
2024-04-04T16:05:25.254Z,1.87
2024-04-04T16:07:26.089Z,1.25
2024-04-04T16:10:25.328Z,1.29
2024-04-04T16:12:25.287Z,1.44
2024-04-04T16:14:25.286Z,1.60
2024-04-04T16:16:25.401Z,1.71
2024-04-04T16:18:25.335Z,1.13
2024-04-04T16:20:25.360Z,1.29
2024-04-04T16:22:25.364Z,1.39
2024-04-04T16:24:25.322Z,1.52
2024-04-04T16:26:25.369Z,1.48
2024-04-04T16:28:25.427Z,1.77
2024-04-04T16:30:25.335Z,1.42
2024-04-04T16:32:25.371Z,1.60
2024-04-04T16:34:25.403Z,1.57
2024-04-04T16:36:25.392Z,2.59
2024-04-04T16:38:25.359Z,1.42
2024-04-04T16:40:25.384Z,1.65
2024-04-04T16:42:25.379Z,1.10
2024-04-04T16:44:25.415Z,1.11
2024-04-04T16:46:25.476Z,1.34
2024-04-04T16:48:25.397Z,1.29
2024-04-04T16:50:25.398Z,1.71
2024-04-04T16:52:25.421Z,1.63
2024-04-04T16:54:25.454Z,1.43
2024-04-04T16:56:25.455Z,1.84
2024-04-04T16:58:25.483Z,1.66
2024-04-04T17:00:25.439Z,1.54
2024-04-04T17:02:25.468Z,1.80
2024-04-04T17:04:25.513Z,1.45
2024-04-04T17:06:25.434Z,1.46
2024-04-04T17:08:25.443Z,1.31
2024-04-04T17:10:25.517Z,1.36
2024-04-04T17:12:25.487Z,1.23
2024-04-04T17:14:25.442Z,1.17
2024-04-04T17:16:25.518Z,1.36
2024-04-04T17:18:25.488Z,1.47
2024-04-04T17:20:25.505Z,1.72
2024-04-04T17:22:25.584Z,1.48
2024-04-04T17:24:25.481Z,1.28
2024-04-04T17:26:25.464Z,1.59
2024-04-04T17:28:25.581Z,1.61
2024-04-04T17:30:25.519Z,1.42
2024-04-04T17:32:25.494Z,1.32
2024-04-04T17:34:25.546Z,1.19
2024-04-04T17:36:25.539Z,1.32
2024-04-04T17:38:25.558Z,1.27
2024-04-04T17:40:25.563Z,1.36
2024-04-04T17:42:25.525Z,1.37
2024-04-04T17:44:25.530Z,1.68
2024-04-04T17:46:25.608Z,1.33
2024-04-04T17:48:25.580Z,1.75
2024-04-04T17:50:25.551Z,1.89
2024-04-04T17:52:25.586Z,1.72
2024-04-04T17:54:25.596Z,1.99
2024-04-04T17:56:25.595Z,1.60
2024-04-04T17:58:26.766Z,2.23
2024-04-04T18:00:25.568Z,1.93
2024-04-04T18:02:25.577Z,1.86
2024-04-04T18:05:25.580Z,2.11
2024-04-04T18:07:25.642Z,2.43
2024-04-04T18:11:25.585Z,3.58
2024-04-04T18:13:25.654Z,2.93
2024-04-04T18:15:25.612Z,2.94
2024-04-04T18:17:25.639Z,2.72
2024-04-04T18:19:25.666Z,2.84
2024-04-04T18:21:25.622Z,2.90
2024-04-04T18:23:25.633Z,2.88
2024-04-04T18:25:25.697Z,2.81
2024-04-04T18:27:25.668Z,2.35
2024-04-04T18:29:25.643Z,2.31
2024-04-04T18:31:25.675Z,2.02
2024-04-04T18:33:25.648Z,1.44
2024-04-04T18:35:25.684Z,1.75
2024-04-04T18:37:25.713Z,1.68
2024-04-04T18:39:25.687Z,1.93
2024-04-04T18:42:25.691Z,1.97
2024-04-04T18:44:25.688Z,2.22
2024-04-04T18:46:25.706Z,2.39
2024-04-04T18:48:25.740Z,2.42
2024-04-04T18:50:27.079Z,2.13
2024-04-04T18:53:25.742Z,2.05
2024-04-04T18:55:25.786Z,2.37
2024-04-04T18:57:25.720Z,2.84
2024-04-04T18:59:25.717Z,2.56
2024-04-04T19:01:25.817Z,2.66
2024-04-04T19:03:25.774Z,2.52
2024-04-04T19:05:25.852Z,2.16
2024-04-04T19:07:25.753Z,1.86
2024-04-04T19:09:25.754Z,2.31
2024-04-04T19:12:25.776Z,2.38
2024-04-04T19:15:25.795Z,2.20
2024-04-04T19:17:25.766Z,2.10
2024-04-04T19:19:25.826Z,2.18
2024-04-04T19:21:25.807Z,2.53
2024-04-04T19:23:25.795Z,2.12
2024-04-04T19:28:25.828Z,1.96
2024-04-04T19:30:25.799Z,2.12
2024-04-04T19:32:25.804Z,2.51
2024-04-04T19:34:25.841Z,2.78
2024-04-04T19:36:25.850Z,2.35
2024-04-04T19:40:25.914Z,2.78
2024-04-04T19:43:25.879Z,2.72
2024-04-04T19:45:25.878Z,2.86
2024-04-04T19:47:25.876Z,2.37
2024-04-04T19:49:25.848Z,2.19
2024-04-04T19:51:25.853Z,1.41
2024-04-04T19:54:25.862Z,2.42
2024-04-04T19:56:25.870Z,2.05
2024-04-04T19:58:25.910Z,1.56
2024-04-04T20:01:25.935Z,1.86
2024-04-04T20:03:25.891Z,1.83
2024-04-04T20:05:25.891Z,1.96
2024-04-04T20:09:25.934Z,1.93
2024-04-04T20:11:25.903Z,1.96
2024-04-04T20:13:25.952Z,1.95
2024-04-04T20:16:25.936Z,2.19
2024-04-04T20:18:25.919Z,2.51
2024-04-04T20:20:25.985Z,2.20
2024-04-04T20:22:25.977Z,2.75
2024-04-04T20:24:25.940Z,2.13
2024-04-04T20:27:25.993Z,2.30
2024-04-04T20:29:25.968Z,3.11
2024-04-04T20:31:25.971Z,2.01
2024-04-04T20:33:25.996Z,2.79
2024-04-04T20:35:25.992Z,2.22
2024-04-04T20:37:25.969Z,2.08
2024-04-04T20:39:25.980Z,2.22
2024-04-04T20:41:26.030Z,1.94
2024-04-04T20:43:26.009Z,2.45
2024-04-04T20:45:25.996Z,2.54
2024-04-04T20:47:26.017Z,2.77
2024-04-04T20:49:26.043Z,2.23
2024-04-04T20:51:26.091Z,2.07
2024-04-04T20:53:26.046Z,2.21
2024-04-04T20:55:26.063Z,1.79
2024-04-04T20:57:26.024Z,2.10
2024-04-04T20:59:26.077Z,2.20
2024-04-04T21:01:26.073Z,1.59
2024-04-04T21:03:28.161Z,2.94
2024-04-04T21:05:26.052Z,3.32
2024-04-04T21:07:26.093Z,3.30
2024-04-04T21:09:27.325Z,3.88
2024-04-04T21:11:26.092Z,3.38
2024-04-04T21:15:26.048Z,3.18
2024-04-04T21:17:26.123Z,3.48
2024-04-04T21:20:26.077Z,2.88
2024-04-04T21:22:26.144Z,2.55
2024-04-04T21:24:26.132Z,2.39
2024-04-04T21:26:26.177Z,2.86
2024-04-04T21:28:26.117Z,3.11
2024-04-04T21:30:26.147Z,2.47
2024-04-04T21:32:26.135Z,2.54
2024-04-04T21:34:26.285Z,2.64
2024-04-04T21:37:26.250Z,2.25
2024-04-04T21:39:26.182Z,2.59
2024-04-04T21:41:26.148Z,2.04
2024-04-04T21:43:26.156Z,2.28
2024-04-04T21:45:26.174Z,2.30
2024-04-04T21:47:26.207Z,2.74
2024-04-04T21:49:26.167Z,2.52
2024-04-04T21:51:26.155Z,1.97
2024-04-04T21:53:26.199Z,2.87
2024-04-04T21:55:26.250Z,2.31
2024-04-04T21:57:26.182Z,2.33
2024-04-04T21:59:26.189Z,1.93
2024-04-04T22:01:26.239Z,1.79
2024-04-04T22:03:26.226Z,1.92
2024-04-04T22:05:26.218Z,1.38
2024-04-04T22:07:26.202Z,1.70
2024-04-04T22:09:26.259Z,2.27
2024-04-04T22:11:26.249Z,2.33
2024-04-04T22:13:26.255Z,1.88
2024-04-04T22:15:26.296Z,1.69
2024-04-04T22:18:26.228Z,1.91
2024-04-04T22:20:26.214Z,2.31
2024-04-04T22:22:26.248Z,2.60
2024-04-04T22:24:26.315Z,2.24
2024-04-04T22:26:26.303Z,2.24
2024-04-04T22:28:26.300Z,2.55
2024-04-04T22:30:26.283Z,2.31
2024-04-04T22:32:26.302Z,2.64
2024-04-04T22:34:26.296Z,2.10
2024-04-04T22:36:26.312Z,2.67
2024-04-04T22:38:26.279Z,2.54
2024-04-04T22:40:26.308Z,2.89
2024-04-04T22:42:26.368Z,2.49
2024-04-04T22:44:26.336Z,3.11
2024-04-04T22:46:26.327Z,2.48
2024-04-04T22:48:26.313Z,2.61
2024-04-04T22:50:26.342Z,2.07
2024-04-04T22:52:26.355Z,3.21
2024-04-04T22:54:28.453Z,3.27
2024-04-04T22:56:26.330Z,2.80
2024-04-04T23:00:26.330Z,2.97
2024-04-04T23:02:26.367Z,3.18
2024-04-04T23:04:26.363Z,2.88
2024-04-04T23:06:26.348Z,3.75
2024-04-04T23:08:26.366Z,3.21
2024-04-04T23:10:26.387Z,3.39
2024-04-04T23:12:26.395Z,2.77
2024-04-04T23:14:26.376Z,3.11
2024-04-04T23:16:26.364Z,2.46
2024-04-04T23:18:26.381Z,2.88
2024-04-04T23:22:26.423Z,3.24
2024-04-04T23:24:26.391Z,2.96
2024-04-04T23:26:26.423Z,3.31
2024-04-04T23:29:26.402Z,3.27
2024-04-04T23:31:28.534Z,2.52
2024-04-04T23:33:26.455Z,3.55
2024-04-04T23:35:26.456Z,3.66
2024-04-04T23:38:26.473Z,2.76
2024-04-04T23:40:26.464Z,3.30
2024-04-04T23:42:26.441Z,2.54
2024-04-04T23:44:26.449Z,3.45
2024-04-04T23:46:26.467Z,2.70
2024-04-04T23:48:26.496Z,2.66
2024-04-04T23:50:26.489Z,3.21
2024-04-04T23:52:26.481Z,3.10
2024-04-04T23:54:26.483Z,3.38
2024-04-04T23:56:26.499Z,3.20
2024-04-04T23:58:26.543Z,3.58
